AXM6185 WBGR-WBGG
Flight info
| Callsign | AXM6185 |
|---|---|
| Flight time | 0h 47m |
| Altitude | 32000 |
| Route | BIPAS1B BIPAS DCT SARVO G580 PILAX DCT LUTMO LUTMO1A |
| Aircraft | A320/M-SDE3FGHIRWY/LB1 |
Departure
| Time | 2026-04-28 13:55 |
|---|---|
| Airport | Miri Airport (WBGR) |
Arrival
| Time | 2026-04-28 14:43 |
|---|---|
| Airport | Kuching International Airport (WBGG) |
| Time | Latitude | Longitude | Altitude | Speed | Heading |
|---|---|---|---|---|---|
| 2026-04-28 13:25 | 4.32515 | 113.98438 | 58 ft | 0 kts | 295° |
| 2026-04-28 13:45 | 4.32515 | 113.98440 | 58 ft | 2 kts | 295° |
| 2026-04-28 13:45 | 4.32503 | 113.98463 | 59 ft | 4 kts | 295° |
| 2026-04-28 13:45 | 4.32492 | 113.98488 | 53 ft | 3 kts | 295° |
| 2026-04-28 13:46 | 4.32483 | 113.98506 | 58 ft | 4 kts | 310° |
| 2026-04-28 13:46 | 4.32463 | 113.98518 | 56 ft | 4 kts | 8° |
| 2026-04-28 13:46 | 4.32440 | 113.98510 | 59 ft | 4 kts | 25° |
| 2026-04-28 13:46 | 4.32425 | 113.98503 | 53 ft | 0 kts | 25° |
| 2026-04-28 13:49 | 4.32429 | 113.98504 | 53 ft | 1 kts | 25° |
| 2026-04-28 13:49 | 4.32448 | 113.98514 | 61 ft | 6 kts | 28° |
| 2026-04-28 13:49 | 4.32471 | 113.98542 | 62 ft | 5 kts | 74° |
| 2026-04-28 13:49 | 4.32460 | 113.98576 | 59 ft | 4 kts | 110° |
| 2026-04-28 13:50 | 4.32463 | 113.98606 | 64 ft | 7 kts | 65° |
| 2026-04-28 13:50 | 4.32518 | 113.98641 | 62 ft | 11 kts | 25° |
| 2026-04-28 13:50 | 4.32580 | 113.98670 | 63 ft | 9 kts | 25° |
| 2026-04-28 13:50 | 4.32660 | 113.98707 | 63 ft | 15 kts | 25° |
| 2026-04-28 13:51 | 4.32755 | 113.98752 | 59 ft | 15 kts | 25° |
| 2026-04-28 13:51 | 4.32809 | 113.98779 | 65 ft | 6 kts | 35° |
| 2026-04-28 13:51 | 4.32829 | 113.98806 | 65 ft | 4 kts | 70° |
| 2026-04-28 13:51 | 4.32823 | 113.98843 | 62 ft | 6 kts | 109° |
| 2026-04-28 13:52 | 4.32809 | 113.98873 | 62 ft | 3 kts | 115° |
| 2026-04-28 13:52 | 4.32793 | 113.98909 | 66 ft | 6 kts | 113° |
| 2026-04-28 13:52 | 4.32792 | 113.98942 | 70 ft | 5 kts | 73° |
| 2026-04-28 13:52 | 4.32830 | 113.98980 | 63 ft | 8 kts | 32° |
| 2026-04-28 13:53 | 4.32883 | 113.99005 | 70 ft | 11 kts | 25° |
| 2026-04-28 13:53 | 4.32962 | 113.99043 | 66 ft | 14 kts | 25° |
| 2026-04-28 13:53 | 4.33049 | 113.99083 | 60 ft | 14 kts | 25° |
| 2026-04-28 13:53 | 4.33145 | 113.99127 | 64 ft | 15 kts | 25° |
| 2026-04-28 13:54 | 4.33251 | 113.99175 | 64 ft | 17 kts | 20° |
| 2026-04-28 13:54 | 4.33347 | 113.99175 | 56 ft | 13 kts | 0° |
| 2026-04-28 13:54 | 4.33368 | 113.99227 | 58 ft | 7 kts | 145° |
| 2026-04-28 13:54 | 4.33322 | 113.99209 | 59 ft | 8 kts | 206° |
| 2026-04-28 13:55 | 4.33127 | 113.99118 | 60 ft | 68 kts | 205° |
| 2026-04-28 13:55 | 4.32482 | 113.98818 | 67 ft | 133 kts | 205° |
| 2026-04-28 13:55 | 4.31517 | 113.98363 | 348 ft | 160 kts | 205° |
| 2026-04-28 13:55 | 4.30510 | 113.97911 | 1030 ft | 158 kts | 204° |
| 2026-04-28 13:56 | 4.29487 | 113.97452 | 1611 ft | 168 kts | 205° |
| 2026-04-28 13:56 | 4.28356 | 113.96932 | 1948 ft | 190 kts | 205° |
| 2026-04-28 13:56 | 4.27087 | 113.96341 | 2235 ft | 212 kts | 205° |
| 2026-04-28 13:56 | 4.25682 | 113.95685 | 2574 ft | 233 kts | 205° |
| 2026-04-28 13:57 | 4.24174 | 113.94984 | 3140 ft | 247 kts | 204° |
| 2026-04-28 13:57 | 4.22599 | 113.94251 | 3870 ft | 257 kts | 204° |
| 2026-04-28 13:57 | 4.20916 | 113.93468 | 4492 ft | 274 kts | 204° |
| 2026-04-28 13:57 | 4.19166 | 113.92654 | 5336 ft | 280 kts | 204° |
| 2026-04-28 13:58 | 4.17384 | 113.91826 | 6216 ft | 285 kts | 204° |
| 2026-04-28 13:58 | 4.15571 | 113.90982 | 7056 ft | 289 kts | 204° |
| 2026-04-28 13:58 | 4.13734 | 113.90127 | 7914 ft | 293 kts | 204° |
| 2026-04-28 13:58 | 4.11873 | 113.89260 | 8761 ft | 297 kts | 203° |
| 2026-04-28 13:59 | 4.10023 | 113.88314 | 9597 ft | 302 kts | 211° |
| 2026-04-28 13:59 | 4.08404 | 113.86991 | 10253 ft | 313 kts | 225° |
| 2026-04-28 13:59 | 4.07067 | 113.85168 | 10517 ft | 337 kts | 242° |
| 2026-04-28 13:59 | 4.06157 | 113.82962 | 11076 ft | 347 kts | 249° |
| 2026-04-28 14:00 | 4.05274 | 113.80700 | 11797 ft | 351 kts | 248° |
| 2026-04-28 14:00 | 4.04361 | 113.78417 | 12523 ft | 355 kts | 248° |
| 2026-04-28 14:00 | 4.03428 | 113.76114 | 13249 ft | 359 kts | 248° |
| 2026-04-28 14:00 | 4.02480 | 113.73785 | 13920 ft | 363 kts | 248° |
| 2026-04-28 14:01 | 4.01524 | 113.71436 | 14520 ft | 367 kts | 248° |
| 2026-04-28 14:01 | 4.00559 | 113.69058 | 15133 ft | 370 kts | 248° |
| 2026-04-28 14:01 | 3.99589 | 113.66659 | 15727 ft | 374 kts | 248° |
| 2026-04-28 14:01 | 3.98622 | 113.64265 | 16317 ft | 377 kts | 248° |
| 2026-04-28 14:02 | 3.97634 | 113.61818 | 16906 ft | 381 kts | 248° |
| 2026-04-28 14:02 | 3.96636 | 113.59346 | 17494 ft | 385 kts | 248° |
| 2026-04-28 14:02 | 3.95628 | 113.56853 | 18085 ft | 388 kts | 248° |
| 2026-04-28 14:02 | 3.94613 | 113.54334 | 18587 ft | 392 kts | 248° |
| 2026-04-28 14:03 | 3.93587 | 113.51794 | 19089 ft | 395 kts | 248° |
| 2026-04-28 14:03 | 3.92553 | 113.49237 | 19584 ft | 398 kts | 248° |
| 2026-04-28 14:03 | 3.91461 | 113.46677 | 20074 ft | 401 kts | 242° |
| 2026-04-28 14:03 | 3.89989 | 113.44303 | 20558 ft | 403 kts | 232° |
| 2026-04-28 14:04 | 3.88309 | 113.42085 | 21033 ft | 406 kts | 232° |
| 2026-04-28 14:04 | 3.86594 | 113.39821 | 21498 ft | 410 kts | 232° |
| 2026-04-28 14:04 | 3.84869 | 113.37538 | 21975 ft | 413 kts | 232° |
| 2026-04-28 14:04 | 3.83133 | 113.35238 | 22424 ft | 416 kts | 232° |
| 2026-04-28 14:05 | 3.81384 | 113.32917 | 22876 ft | 419 kts | 232° |
| 2026-04-28 14:05 | 3.79625 | 113.30582 | 23334 ft | 422 kts | 231° |
| 2026-04-28 14:05 | 3.77853 | 113.28230 | 23724 ft | 425 kts | 231° |
| 2026-04-28 14:05 | 3.76068 | 113.25862 | 24103 ft | 427 kts | 231° |
| 2026-04-28 14:06 | 3.74297 | 113.23515 | 24480 ft | 429 kts | 231° |
| 2026-04-28 14:06 | 3.72496 | 113.21128 | 24868 ft | 431 kts | 231° |
| 2026-04-28 14:06 | 3.70683 | 113.18729 | 25248 ft | 433 kts | 231° |
| 2026-04-28 14:06 | 3.68858 | 113.16319 | 25628 ft | 435 kts | 231° |
| 2026-04-28 14:07 | 3.67028 | 113.13899 | 25998 ft | 437 kts | 231° |
| 2026-04-28 14:07 | 3.65192 | 113.11463 | 26378 ft | 439 kts | 231° |
| 2026-04-28 14:07 | 3.63351 | 113.09016 | 26739 ft | 441 kts | 231° |
| 2026-04-28 14:07 | 3.61523 | 113.06587 | 27103 ft | 443 kts | 231° |
| 2026-04-28 14:08 | 3.59660 | 113.04121 | 27458 ft | 445 kts | 231° |
| 2026-04-28 14:08 | 3.57787 | 113.01641 | 27806 ft | 448 kts | 230° |
| 2026-04-28 14:08 | 3.55904 | 112.99150 | 28152 ft | 450 kts | 230° |
| 2026-04-28 14:08 | 3.54013 | 112.96649 | 28493 ft | 452 kts | 230° |
| 2026-04-28 14:09 | 3.52114 | 112.94138 | 28827 ft | 454 kts | 230° |
| 2026-04-28 14:09 | 3.50204 | 112.91608 | 29150 ft | 457 kts | 230° |
| 2026-04-28 14:09 | 3.48284 | 112.89066 | 29465 ft | 459 kts | 230° |
| 2026-04-28 14:09 | 3.46353 | 112.86513 | 29805 ft | 461 kts | 230° |
| 2026-04-28 14:10 | 3.44438 | 112.83980 | 30098 ft | 464 kts | 230° |
| 2026-04-28 14:10 | 3.42521 | 112.81371 | 30377 ft | 466 kts | 232° |
| 2026-04-28 14:10 | 3.40662 | 112.78711 | 30653 ft | 468 kts | 233° |
| 2026-04-28 14:10 | 3.38836 | 112.76008 | 30937 ft | 469 kts | 234° |
| 2026-04-28 14:11 | 3.37024 | 112.73287 | 31210 ft | 470 kts | 234° |
| 2026-04-28 14:11 | 3.35206 | 112.70560 | 31485 ft | 472 kts | 234° |
| 2026-04-28 14:11 | 3.33373 | 112.67836 | 31834 ft | 471 kts | 233° |
| 2026-04-28 14:11 | 3.31537 | 112.65136 | 32232 ft | 469 kts | 233° |
| 2026-04-28 14:12 | 3.29696 | 112.62451 | 32630 ft | 467 kts | 233° |
| 2026-04-28 14:12 | 3.27880 | 112.59812 | 33021 ft | 466 kts | 233° |
| 2026-04-28 14:12 | 3.26044 | 112.57150 | 33419 ft | 464 kts | 233° |
| 2026-04-28 14:12 | 3.24209 | 112.54493 | 33773 ft | 464 kts | 233° |
| 2026-04-28 14:13 | 3.20600 | 112.49246 | 33880 ft | 448 kts | 233° |
| 2026-04-28 14:13 | 3.17107 | 112.44152 | 33874 ft | 442 kts | 233° |
| 2026-04-28 14:14 | 3.13638 | 112.39101 | 33879 ft | 444 kts | 233° |
| 2026-04-28 14:14 | 3.10138 | 112.34000 | 33879 ft | 445 kts | 233° |
| 2026-04-28 14:15 | 3.06637 | 112.28895 | 33879 ft | 445 kts | 233° |
| 2026-04-28 14:15 | 3.03137 | 112.23789 | 33879 ft | 445 kts | 233° |
| 2026-04-28 14:16 | 2.99660 | 112.18717 | 33879 ft | 445 kts | 233° |
| 2026-04-28 14:16 | 2.96150 | 112.13621 | 33879 ft | 445 kts | 233° |
| 2026-04-28 14:17 | 2.92645 | 112.08515 | 33880 ft | 445 kts | 233° |
| 2026-04-28 14:17 | 2.89108 | 112.03440 | 33881 ft | 444 kts | 228° |
| 2026-04-28 14:18 | 2.85018 | 111.98836 | 33881 ft | 443 kts | 225° |
| 2026-04-28 14:18 | 2.80920 | 111.94289 | 33880 ft | 443 kts | 225° |
| 2026-04-28 14:19 | 2.76804 | 111.89700 | 33878 ft | 443 kts | 226° |
| 2026-04-28 14:19 | 2.72692 | 111.85103 | 33737 ft | 443 kts | 226° |
| 2026-04-28 14:20 | 2.70649 | 111.82819 | 33399 ft | 438 kts | 226° |
| 2026-04-28 14:20 | 2.68621 | 111.80557 | 32863 ft | 435 kts | 225° |
| 2026-04-28 14:20 | 2.66609 | 111.78317 | 32342 ft | 433 kts | 225° |
| 2026-04-28 14:20 | 2.64602 | 111.76083 | 31817 ft | 430 kts | 225° |
| 2026-04-28 14:21 | 2.62632 | 111.73888 | 31311 ft | 428 kts | 225° |
| 2026-04-28 14:21 | 2.60652 | 111.71680 | 30808 ft | 426 kts | 225° |
| 2026-04-28 14:21 | 2.58680 | 111.69480 | 30313 ft | 424 kts | 225° |
| 2026-04-28 14:21 | 2.56720 | 111.67295 | 29803 ft | 421 kts | 225° |
| 2026-04-28 14:22 | 2.54768 | 111.65121 | 29298 ft | 417 kts | 225° |
| 2026-04-28 14:22 | 2.52841 | 111.62973 | 28840 ft | 412 kts | 226° |
| 2026-04-28 14:22 | 2.50939 | 111.60846 | 28374 ft | 408 kts | 226° |
| 2026-04-28 14:22 | 2.49059 | 111.58744 | 27937 ft | 403 kts | 226° |
| 2026-04-28 14:23 | 2.47221 | 111.56693 | 27494 ft | 400 kts | 226° |
| 2026-04-28 14:23 | 2.45370 | 111.54632 | 27033 ft | 397 kts | 226° |
| 2026-04-28 14:23 | 2.43532 | 111.52589 | 26582 ft | 394 kts | 226° |
| 2026-04-28 14:23 | 2.41727 | 111.50583 | 26116 ft | 392 kts | 226° |
| 2026-04-28 14:24 | 2.39911 | 111.48561 | 25649 ft | 390 kts | 226° |
| 2026-04-28 14:24 | 2.38100 | 111.46542 | 25156 ft | 389 kts | 226° |
| 2026-04-28 14:24 | 2.36295 | 111.44529 | 24661 ft | 389 kts | 226° |
| 2026-04-28 14:24 | 2.34489 | 111.42518 | 24161 ft | 389 kts | 226° |
| 2026-04-28 14:25 | 2.32683 | 111.40505 | 23662 ft | 389 kts | 226° |
| 2026-04-28 14:25 | 2.30850 | 111.38575 | 23124 ft | 387 kts | 220° |
| 2026-04-28 14:25 | 2.28854 | 111.36785 | 22625 ft | 385 kts | 220° |
| 2026-04-28 14:25 | 2.26867 | 111.35002 | 22145 ft | 382 kts | 220° |
| 2026-04-28 14:26 | 2.24895 | 111.33229 | 21669 ft | 381 kts | 220° |
| 2026-04-28 14:26 | 2.22929 | 111.31460 | 21209 ft | 379 kts | 220° |
| 2026-04-28 14:26 | 2.20974 | 111.29705 | 20746 ft | 377 kts | 220° |
| 2026-04-28 14:26 | 2.19024 | 111.27954 | 20291 ft | 376 kts | 220° |
| 2026-04-28 14:27 | 2.17105 | 111.26229 | 19828 ft | 375 kts | 220° |
| 2026-04-28 14:27 | 2.15168 | 111.24488 | 19383 ft | 374 kts | 220° |
| 2026-04-28 14:27 | 2.13238 | 111.22753 | 18930 ft | 373 kts | 220° |
| 2026-04-28 14:27 | 2.11306 | 111.21016 | 18478 ft | 373 kts | 220° |
| 2026-04-28 14:28 | 2.09385 | 111.19288 | 18011 ft | 372 kts | 220° |
| 2026-04-28 14:28 | 2.07465 | 111.17562 | 17536 ft | 370 kts | 220° |
| 2026-04-28 14:28 | 2.05558 | 111.15849 | 17100 ft | 367 kts | 220° |
| 2026-04-28 14:28 | 2.03662 | 111.14144 | 16665 ft | 365 kts | 220° |
| 2026-04-28 14:29 | 2.01782 | 111.12452 | 16236 ft | 363 kts | 220° |
| 2026-04-28 14:29 | 1.99939 | 111.10796 | 15822 ft | 361 kts | 220° |
| 2026-04-28 14:29 | 1.98077 | 111.09126 | 15453 ft | 357 kts | 220° |
| 2026-04-28 14:29 | 1.96228 | 111.07466 | 15041 ft | 356 kts | 221° |
| 2026-04-28 14:30 | 1.94394 | 111.05815 | 14625 ft | 355 kts | 221° |
| 2026-04-28 14:30 | 1.92573 | 111.04178 | 14240 ft | 352 kts | 221° |
| 2026-04-28 14:30 | 1.90756 | 111.02550 | 13941 ft | 348 kts | 221° |
| 2026-04-28 14:30 | 1.88957 | 111.00938 | 13554 ft | 346 kts | 221° |
| 2026-04-28 14:31 | 1.87169 | 110.99333 | 13133 ft | 344 kts | 221° |
| 2026-04-28 14:31 | 1.85417 | 110.97758 | 12733 ft | 342 kts | 221° |
| 2026-04-28 14:31 | 1.83655 | 110.96171 | 12334 ft | 340 kts | 221° |
| 2026-04-28 14:31 | 1.81906 | 110.94594 | 11935 ft | 338 kts | 221° |
| 2026-04-28 14:32 | 1.80165 | 110.93030 | 11539 ft | 335 kts | 221° |
| 2026-04-28 14:32 | 1.78436 | 110.91478 | 11151 ft | 333 kts | 221° |
| 2026-04-28 14:32 | 1.76720 | 110.89937 | 10771 ft | 330 kts | 221° |
| 2026-04-28 14:32 | 1.75016 | 110.88409 | 10400 ft | 328 kts | 221° |
| 2026-04-28 14:33 | 1.73423 | 110.86814 | 9844 ft | 322 kts | 232° |
| 2026-04-28 14:33 | 1.72251 | 110.84930 | 9616 ft | 314 kts | 239° |
| 2026-04-28 14:33 | 1.71187 | 110.83090 | 9364 ft | 307 kts | 239° |
| 2026-04-28 14:33 | 1.70116 | 110.81268 | 8822 ft | 301 kts | 239° |
| 2026-04-28 14:34 | 1.68008 | 110.77697 | 7518 ft | 294 kts | 239° |
| 2026-04-28 14:34 | 1.66987 | 110.75962 | 7046 ft | 285 kts | 239° |
| 2026-04-28 14:34 | 1.65991 | 110.74266 | 6625 ft | 283 kts | 239° |
| 2026-04-28 14:35 | 1.64992 | 110.72563 | 6174 ft | 285 kts | 239° |
| 2026-04-28 14:35 | 1.63993 | 110.70853 | 5723 ft | 285 kts | 239° |
| 2026-04-28 14:35 | 1.63006 | 110.69167 | 5306 ft | 284 kts | 239° |
| 2026-04-28 14:35 | 1.62013 | 110.67472 | 4882 ft | 283 kts | 239° |
| 2026-04-28 14:36 | 1.60995 | 110.65824 | 4586 ft | 276 kts | 239° |
| 2026-04-28 14:36 | 1.60161 | 110.64120 | 4327 ft | 268 kts | 247° |
| 2026-04-28 14:36 | 1.59502 | 110.62434 | 4286 ft | 252 kts | 249° |
| 2026-04-28 14:36 | 1.58891 | 110.60858 | 4294 ft | 235 kts | 248° |
| 2026-04-28 14:37 | 1.58308 | 110.59386 | 4292 ft | 221 kts | 248° |
| 2026-04-28 14:37 | 1.57755 | 110.57995 | 4211 ft | 212 kts | 248° |
| 2026-04-28 14:37 | 1.57227 | 110.56666 | 4014 ft | 205 kts | 248° |
| 2026-04-28 14:37 | 1.56710 | 110.55364 | 3751 ft | 199 kts | 248° |
| 2026-04-28 14:38 | 1.56207 | 110.54098 | 3494 ft | 194 kts | 247° |
| 2026-04-28 14:38 | 1.55719 | 110.52870 | 3262 ft | 186 kts | 247° |
| 2026-04-28 14:38 | 1.55254 | 110.51698 | 3034 ft | 176 kts | 248° |
| 2026-04-28 14:38 | 1.54816 | 110.50597 | 2823 ft | 165 kts | 248° |
| 2026-04-28 14:39 | 1.54405 | 110.49561 | 2624 ft | 156 kts | 248° |
| 2026-04-28 14:39 | 1.54011 | 110.48570 | 2417 ft | 151 kts | 249° |
| 2026-04-28 14:39 | 1.53627 | 110.47604 | 2235 ft | 149 kts | 249° |
| 2026-04-28 14:39 | 1.53259 | 110.46677 | 2059 ft | 144 kts | 249° |
| 2026-04-28 14:40 | 1.52894 | 110.45758 | 1867 ft | 141 kts | 249° |
| 2026-04-28 14:40 | 1.52650 | 110.45146 | 1744 ft | 140 kts | 249° |
| 2026-04-28 14:40 | 1.52177 | 110.43955 | 1506 ft | 139 kts | 249° |
| 2026-04-28 14:40 | 1.51823 | 110.43062 | 1326 ft | 138 kts | 249° |
| 2026-04-28 14:41 | 1.51468 | 110.42169 | 1149 ft | 138 kts | 249° |
| 2026-04-28 14:41 | 1.51113 | 110.41278 | 965 ft | 138 kts | 249° |
| 2026-04-28 14:41 | 1.50759 | 110.40392 | 807 ft | 137 kts | 249° |
| 2026-04-28 14:41 | 1.50418 | 110.39520 | 628 ft | 136 kts | 249° |
| 2026-04-28 14:42 | 1.50071 | 110.38648 | 452 ft | 135 kts | 248° |
| 2026-04-28 14:42 | 1.49723 | 110.37784 | 281 ft | 134 kts | 248° |
| 2026-04-28 14:42 | 1.49381 | 110.36922 | 115 ft | 133 kts | 248° |
| 2026-04-28 14:42 | 1.49057 | 110.36102 | 57 ft | 112 kts | 248° |
| 2026-04-28 14:43 | 1.48831 | 110.35539 | 71 ft | 63 kts | 248° |
| 2026-04-28 14:43 | 1.48732 | 110.35290 | 74 ft | 22 kts | 249° |
| 2026-04-28 14:43 | 1.48676 | 110.35146 | 76 ft | 22 kts | 248° |
| 2026-04-28 14:43 | 1.48617 | 110.35001 | 66 ft | 23 kts | 248° |
| 2026-04-28 14:44 | 1.48600 | 110.34840 | 72 ft | 24 kts | 278° |
| 2026-04-28 14:44 | 1.48622 | 110.34698 | 71 ft | 13 kts | 278° |
| 2026-04-28 14:44 | 1.48644 | 110.34602 | 76 ft | 15 kts | 303° |
| 2026-04-28 14:44 | 1.48698 | 110.34542 | 75 ft | 10 kts | 268° |
| 2026-04-28 14:45 | 1.48670 | 110.34475 | 71 ft | 11 kts | 248° |
| 2026-04-28 14:45 | 1.48640 | 110.34397 | 72 ft | 13 kts | 249° |
| 2026-04-28 14:45 | 1.48615 | 110.34334 | 69 ft | 6 kts | 248° |
| 2026-04-28 14:45 | 1.48621 | 110.34304 | 70 ft | 4 kts | 317° |
| 2026-04-28 14:46 | 1.48643 | 110.34292 | 73 ft | 3 kts | 338° |
| 2026-04-28 14:46 | 1.48662 | 110.34285 | 70 ft | 3 kts | 339° |
| 2026-04-28 14:46 | 1.48674 | 110.34280 | 75 ft | 1 kts | 339° |
| 2026-04-28 14:46 | 1.48678 | 110.34278 | 78 ft | 0 kts | 339° |
| 2026-04-28 14:47 | 1.48679 | 110.34278 | 78 ft | 0 kts | 339° |